createdAt,value
2018-08-20T00:02:34.561Z,84.00
2018-08-20T00:07:37.537Z,83.20
2018-08-20T00:12:40.505Z,82.80
2018-08-20T00:17:43.564Z,83.00
2018-08-20T00:22:46.533Z,83.60
2018-08-20T00:27:49.497Z,83.60
2018-08-20T00:32:55.526Z,83.40
2018-08-20T00:37:58.505Z,83.40
2018-08-20T00:43:01.489Z,83.00
2018-08-20T00:48:04.458Z,82.80
2018-08-20T00:53:07.430Z,82.30
2018-08-20T00:58:10.400Z,82.20
2018-08-20T01:03:13.382Z,82.10
2018-08-20T01:08:16.353Z,81.60
2018-08-20T01:13:19.321Z,81.30
2018-08-20T01:18:22.372Z,81.20
2018-08-20T01:23:25.425Z,81.00
2018-08-20T01:28:28.541Z,81.20
2018-08-20T01:33:31.578Z,81.00
2018-08-20T01:38:34.583Z,81.10
2018-08-20T01:43:37.583Z,80.90
2018-08-20T01:48:40.570Z,80.90
2018-08-20T01:53:43.613Z,81.40
2018-08-20T01:58:46.618Z,81.40
2018-08-20T02:03:49.618Z,81.40
2018-08-20T02:08:53.304Z,82.00
2018-08-20T02:13:57.370Z,82.10
2018-08-20T02:19:00.514Z,82.30
2018-08-20T02:24:03.514Z,82.80
2018-08-20T02:29:06.530Z,83.00
2018-08-20T02:34:09.517Z,83.00
2018-08-20T02:39:13.982Z,82.60
2018-08-20T02:44:16.978Z,82.60
2018-08-20T02:49:20.101Z,82.60
2018-08-20T02:54:23.161Z,82.50
2018-08-20T02:59:26.211Z,83.20
2018-08-20T03:04:29.285Z,83.60
2018-08-20T03:09:32.278Z,84.40
2018-08-20T03:14:35.278Z,84.90
2018-08-20T03:19:38.278Z,84.80
2018-08-20T03:24:41.274Z,84.40
2018-08-20T03:29:44.274Z,84.40
2018-08-20T03:34:47.359Z,84.80
2018-08-20T03:39:50.349Z,85.20
2018-08-20T03:44:53.545Z,84.90
2018-08-20T03:49:56.689Z,84.40
2018-08-20T03:54:59.763Z,84.40
2018-08-20T04:00:02.765Z,84.70
2018-08-20T04:05:05.783Z,84.80
2018-08-20T04:10:08.754Z,85.00
2018-08-20T04:15:11.749Z,85.10
2018-08-20T04:20:14.774Z,85.50
2018-08-20T04:25:17.804Z,85.50
2018-08-20T04:30:20.802Z,85.90
2018-08-20T04:35:24.327Z,86.00
2018-08-20T04:40:27.426Z,86.60
2018-08-20T04:45:30.430Z,86.20
2018-08-20T04:50:33.516Z,86.20
2018-08-20T04:55:36.522Z,86.10
2018-08-20T05:00:39.527Z,86.50
2018-08-20T05:05:42.631Z,86.30
2018-08-20T05:10:45.621Z,86.20
2018-08-20T05:15:48.726Z,86.00
2018-08-20T05:20:51.732Z,86.10
2018-08-20T05:25:54.928Z,85.70
2018-08-20T05:30:57.949Z,85.60
2018-08-20T05:36:01.049Z,85.20
2018-08-20T05:41:04.090Z,85.30
2018-08-20T05:46:07.077Z,84.70
2018-08-20T05:51:10.071Z,84.90
2018-08-20T05:56:13.104Z,84.70
2018-08-20T06:01:16.103Z,84.60
2018-08-20T06:06:19.093Z,85.00
2018-08-20T06:11:22.107Z,84.90
2018-08-20T06:16:25.366Z,85.20
2018-08-20T06:21:28.435Z,85.30
2018-08-20T06:26:31.471Z,85.00
2018-08-20T06:31:34.457Z,84.80
2018-08-20T06:36:37.509Z,84.80
2018-08-20T06:41:40.467Z,84.70
2018-08-20T06:46:44.487Z,84.60
2018-08-20T06:51:47.494Z,84.50
2018-08-20T06:56:50.484Z,84.60
2018-08-20T07:01:54.276Z,84.40
2018-08-20T07:06:57.412Z,83.80
2018-08-20T07:12:00.499Z,83.60
2018-08-20T07:17:03.515Z,83.50
2018-08-20T07:22:06.606Z,83.50
2018-08-20T07:27:09.594Z,83.00
2018-08-20T07:32:13.595Z,83.10
2018-08-20T07:37:17.362Z,82.90
2018-08-20T07:42:20.408Z,83.30
2018-08-20T07:47:23.999Z,83.20
2018-08-20T07:52:27.097Z,83.30
2018-08-20T07:57:30.119Z,83.40
2018-08-20T08:02:33.122Z,83.20
2018-08-20T08:07:36.127Z,83.80
2018-08-20T08:12:39.259Z,83.30
2018-08-20T08:17:43.491Z,83.90
2018-08-20T08:22:46.650Z,83.90
2018-08-20T08:27:49.659Z,83.20
2018-08-20T08:32:52.663Z,83.80
2018-08-20T08:37:55.737Z,83.40
2018-08-20T08:42:58.700Z,83.30
2018-08-20T08:48:01.726Z,83.20
2018-08-20T08:53:04.794Z,83.00
2018-08-20T08:58:07.791Z,83.30
2018-08-20T09:03:10.779Z,82.60
2018-08-20T09:08:14.042Z,82.60
2018-08-20T09:13:17.202Z,81.40
2018-08-20T09:18:20.216Z,81.20
2018-08-20T09:23:23.283Z,80.50
2018-08-20T09:28:26.398Z,80.00
2018-08-20T09:33:29.486Z,79.40
2018-08-20T09:38:32.527Z,79.20
2018-08-20T09:43:35.512Z,78.70
2018-08-20T09:48:38.503Z,77.40
2018-08-20T09:53:41.494Z,76.10
2018-08-20T09:58:44.539Z,74.90
2018-08-20T10:03:47.573Z,74.00
2018-08-20T10:08:50.559Z,74.10
2018-08-20T10:13:53.694Z,73.20
2018-08-20T10:18:56.831Z,73.00
2018-08-20T10:23:59.905Z,72.10
2018-08-20T10:29:02.906Z,72.20
2018-08-20T10:34:05.902Z,72.10
2018-08-20T10:39:10.178Z,72.10
2018-08-20T10:44:13.190Z,71.70
2018-08-20T10:49:16.179Z,71.80
2018-08-20T10:54:19.166Z,72.20
2018-08-20T10:59:22.175Z,72.40
2018-08-20T11:04:25.938Z,72.70
2018-08-20T11:09:28.954Z,73.50
2018-08-20T11:14:32.006Z,74.50
2018-08-20T11:19:35.002Z,76.70
2018-08-20T11:24:38.061Z,77.30
2018-08-20T11:29:41.057Z,76.70
2018-08-20T11:34:44.215Z,74.80
2018-08-20T11:39:47.222Z,73.40
2018-08-20T11:44:50.207Z,73.10
2018-08-20T11:49:53.281Z,72.30
2018-08-20T11:54:56.294Z,71.80
2018-08-20T11:59:59.307Z,72.30
2018-08-20T12:05:02.323Z,73.60
2018-08-20T12:10:06.730Z,75.30
2018-08-20T12:15:11.182Z,76.30
2018-08-20T12:20:14.254Z,77.00
2018-08-20T12:25:17.402Z,77.20
2018-08-20T12:30:20.406Z,77.30
2018-08-20T12:35:23.522Z,77.60
2018-08-20T12:40:26.836Z,78.20
2018-08-20T12:45:30.218Z,79.10
2018-08-20T12:50:33.202Z,79.10
2018-08-20T12:55:36.214Z,79.40
2018-08-20T13:00:39.305Z,79.80
2018-08-20T13:05:42.213Z,80.10
2018-08-20T13:10:45.258Z,80.60
2018-08-20T13:15:48.304Z,80.80
2018-08-20T13:20:51.278Z,80.80
2018-08-20T13:25:54.291Z,80.60
2018-08-20T13:30:57.404Z,80.30
2018-08-20T13:36:00.402Z,80.00
2018-08-20T13:41:03.394Z,80.80
2018-08-20T13:46:06.394Z,80.40
2018-08-20T13:51:09.390Z,80.90
2018-08-20T13:56:12.394Z,81.10
2018-08-20T14:01:15.506Z,82.90
2018-08-20T14:06:18.595Z,85.70
2018-08-20T14:11:21.582Z,85.80
2018-08-20T14:16:24.763Z,84.90
2018-08-20T14:21:27.873Z,84.10
2018-08-20T14:26:30.905Z,84.40
2018-08-20T14:31:33.893Z,85.00
2018-08-20T14:36:36.985Z,85.10
2018-08-20T14:41:39.901Z,85.00
2018-08-20T14:46:42.914Z,85.60
2018-08-20T14:51:45.943Z,85.90
2018-08-20T14:56:48.935Z,85.90
2018-08-20T15:01:51.975Z,85.80
2018-08-20T15:06:59.806Z,85.10
2018-08-20T15:12:02.827Z,85.10
2018-08-20T15:17:05.815Z,84.20
2018-08-20T15:22:08.790Z,84.00
2018-08-20T15:27:11.794Z,83.80
2018-08-20T15:32:14.846Z,83.80
2018-08-20T15:37:17.869Z,83.70
2018-08-20T15:42:20.853Z,83.80
2018-08-20T15:47:23.893Z,84.00
2018-08-20T15:52:27.012Z,84.10
2018-08-20T15:57:30.064Z,84.30
2018-08-20T16:02:33.054Z,84.30
2018-08-20T16:07:36.053Z,84.70
2018-08-20T16:12:39.435Z,84.90
2018-08-20T16:17:42.437Z,85.00
2018-08-20T16:22:45.432Z,85.80
2018-08-20T16:27:48.427Z,85.90
2018-08-20T16:32:51.429Z,86.00
2018-08-20T16:37:54.465Z,86.00
2018-08-20T16:42:57.711Z,86.40
2018-08-20T16:48:00.710Z,86.60
2018-08-20T16:53:03.770Z,86.90
2018-08-20T16:58:06.799Z,86.20
2018-08-20T17:03:10.766Z,86.40
2018-08-20T17:08:18.149Z,86.60
2018-08-20T17:13:21.137Z,86.80
2018-08-20T17:18:24.159Z,86.90
2018-08-20T17:23:27.342Z,86.80
2018-08-20T17:28:30.339Z,87.40
2018-08-20T17:33:34.634Z,87.60
2018-08-20T17:38:37.610Z,87.60
2018-08-20T17:43:40.599Z,87.80
2018-08-20T17:48:43.626Z,88.00
2018-08-20T17:53:54.677Z,88.40
2018-08-20T17:59:03.170Z,88.70
2018-08-20T18:04:06.418Z,89.30
2018-08-20T18:09:09.403Z,89.70
2018-08-20T18:14:12.459Z,90.00
2018-08-20T18:19:15.905Z,90.10
2018-08-20T18:24:19.964Z,90.30
2018-08-20T18:29:23.050Z,90.30
2018-08-20T18:34:26.199Z,90.40
2018-08-20T18:39:29.254Z,90.60
2018-08-20T18:44:32.242Z,90.60
2018-08-20T18:49:44.075Z,90.90
2018-08-20T18:54:49.159Z,91.10
2018-08-20T18:59:52.446Z,91.10
2018-08-20T19:04:55.692Z,91.40
2018-08-20T19:09:58.724Z,91.60
2018-08-20T19:15:12.708Z,91.50
2018-08-20T19:20:15.734Z,91.70
2018-08-20T19:25:18.740Z,91.70
2018-08-20T19:30:24.783Z,91.80
2018-08-20T19:35:27.799Z,91.80
2018-08-20T19:40:31.070Z,92.00
2018-08-20T19:45:38.416Z,92.00
2018-08-20T19:50:41.465Z,92.50
2018-08-20T19:55:44.569Z,92.40
2018-08-20T20:01:01.065Z,92.60
2018-08-20T20:06:04.103Z,92.70
2018-08-20T20:11:12.044Z,92.80
2018-08-20T20:16:15.055Z,92.90
2018-08-20T20:21:18.441Z,93.10
2018-08-20T20:26:21.727Z,92.90
2018-08-20T20:31:24.815Z,92.80
2018-08-20T20:36:29.223Z,92.70
2018-08-20T20:41:32.213Z,92.70
2018-08-20T20:46:35.229Z,92.70
2018-08-20T20:51:38.244Z,92.40
2018-08-20T20:56:41.358Z,92.40
2018-08-20T21:01:44.357Z,92.30
2018-08-20T21:06:47.349Z,92.30
2018-08-20T21:11:50.351Z,92.30
2018-08-20T21:16:53.517Z,92.30
2018-08-20T21:21:56.566Z,92.20
2018-08-20T21:26:59.566Z,92.10
2018-08-20T21:32:02.592Z,92.30
2018-08-20T21:37:05.598Z,92.10
2018-08-20T21:42:08.610Z,92.00
2018-08-20T21:47:29.482Z,91.90
2018-08-20T21:52:32.486Z,91.60
2018-08-20T21:57:36.731Z,91.60
2018-08-20T22:02:39.760Z,91.50
2018-08-20T22:07:43.070Z,91.50
2018-08-20T22:12:46.090Z,91.30
2018-08-20T22:17:49.129Z,91.30
2018-08-20T22:22:52.301Z,91.10
2018-08-20T22:27:56.374Z,91.10
2018-08-20T22:32:59.538Z,91.00
2018-08-20T22:38:03.374Z,91.00
2018-08-20T22:43:06.391Z,91.10
2018-08-20T22:48:10.123Z,91.00
2018-08-20T22:53:14.054Z,91.30
2018-08-20T22:58:17.075Z,91.20
2018-08-20T23:03:20.079Z,91.30
2018-08-20T23:08:23.311Z,91.40
2018-08-20T23:13:26.350Z,91.50
2018-08-20T23:18:29.435Z,91.40
2018-08-20T23:23:34.662Z,91.60
2018-08-20T23:28:39.798Z,91.70
2018-08-20T23:33:42.818Z,91.90
2018-08-20T23:38:45.851Z,92.00
2018-08-20T23:43:53.165Z,92.10
2018-08-20T23:48:56.274Z,92.10
2018-08-20T23:53:59.281Z,92.10
2018-08-20T23:59:02.278Z,92.10
